createdAt,value
2022-12-25T05:03:50.374Z,9.70
2022-12-25T05:06:17.553Z,9.70
2022-12-25T05:08:44.174Z,9.70
2022-12-25T05:11:13.691Z,9.70
2022-12-25T05:13:40.655Z,9.70
2022-12-25T05:16:13.039Z,9.70
2022-12-25T05:52:04.580Z,9.70
2022-12-25T05:54:31.218Z,9.70
2022-12-25T05:56:57.889Z,9.70
2022-12-25T06:30:09.221Z,9.80
2022-12-25T06:32:35.988Z,9.80
2022-12-25T06:35:02.797Z,9.90
2022-12-25T09:07:19.959Z,10.40
2022-12-25T09:13:27.188Z,10.50
2022-12-25T09:38:51.395Z,10.60
2022-12-25T09:41:30.928Z,10.60
2022-12-25T09:44:15.376Z,10.60
2022-12-25T09:46:45.498Z,10.60
2022-12-25T09:49:46.764Z,10.60
2022-12-25T09:59:56.986Z,10.70
2022-12-25T10:03:12.260Z,10.70
2022-12-25T10:05:53.408Z,10.70
2022-12-25T11:03:43.598Z,10.80
2022-12-25T11:06:31.825Z,10.80
2022-12-25T11:09:01.338Z,10.80
2022-12-25T11:11:29.875Z,10.80
2022-12-25T11:13:59.571Z,10.80
2022-12-25T11:16:28.305Z,10.90
2022-12-25T11:26:51.496Z,11.00
2022-12-25T11:29:27.114Z,10.90
2022-12-25T11:31:57.190Z,11.00
2022-12-25T13:36:14.361Z,11.40
2022-12-25T13:38:51.155Z,11.50
2022-12-25T13:41:45.693Z,11.40
2022-12-25T13:59:27.663Z,11.60
2022-12-25T14:01:54.941Z,11.50
2022-12-25T14:04:24.304Z,11.60
2022-12-25T14:06:52.245Z,11.60
2022-12-25T14:09:19.462Z,11.50
2022-12-25T14:23:16.073Z,11.60
2022-12-25T14:25:45.420Z,11.60
2022-12-25T14:28:27.034Z,11.60
2022-12-25T14:30:56.267Z,11.60
2022-12-25T14:33:25.743Z,11.60
2022-12-25T14:35:52.790Z,11.60
2022-12-25T14:38:39.577Z,11.60
2022-12-25T15:08:19.663Z,11.60
2022-12-25T15:10:59.627Z,11.50
2022-12-25T15:13:28.256Z,11.60
2022-12-25T15:16:12.038Z,11.60
2022-12-25T17:50:07.937Z,11.10
2022-12-25T17:52:34.609Z,11.10
2022-12-25T17:55:01.332Z,11.10
2022-12-25T17:57:28.049Z,11.10
2022-12-25T17:59:54.717Z,11.20
2022-12-25T18:02:21.606Z,11.20
2022-12-25T18:04:48.418Z,11.20
2022-12-25T18:11:16.111Z,11.20
2022-12-25T18:13:45.027Z,11.20
2022-12-25T18:16:13.106Z,11.20
2022-12-25T18:18:44.056Z,11.20
2022-12-25T18:21:14.680Z,11.20
2022-12-25T21:21:58.461Z,10.90
2022-12-25T21:24:25.105Z,11.00
2022-12-25T21:26:51.755Z,10.90
2022-12-25T21:29:22.732Z,10.90
2022-12-25T21:32:08.026Z,11.00
2022-12-25T21:50:07.172Z,11.10
2022-12-25T21:52:35.127Z,11.10
2022-12-25T21:55:01.888Z,11.10
2022-12-25T21:57:28.579Z,11.00
2022-12-25T22:12:15.329Z,11.10
2022-12-25T22:14:54.973Z,11.10
2022-12-25T22:17:47.043Z,11.10
2022-12-25T22:20:21.826Z,11.10
2022-12-25T22:22:48.771Z,11.10
2022-12-25T22:25:16.527Z,11.10
2022-12-25T22:27:44.664Z,11.10
2022-12-25T22:30:17.838Z,11.10
2022-12-25T22:44:17.171Z,11.10
2022-12-25T22:46:44.883Z,11.10
2022-12-25T22:49:11.708Z,11.10
2022-12-25T22:51:38.542Z,11.10
2022-12-25T22:54:05.334Z,11.10
2022-12-25T22:56:32.087Z,11.10
2022-12-25T23:02:50.148Z,11.10
2022-12-25T23:05:16.953Z,11.10
2022-12-25T23:07:43.654Z,11.10
